Time;durP1;ratioP1;P1;durP2;ratioP2;P2;SDS_P1;SDS_P2;PMS_P1;PMS_P2;Temp;Humidity;BMP_temperature;BMP_pressure;BME280_temperature;BME280_humidity;BME280_pressure;Samples;Min_cycle;Max_cycle;Signal;HPM_P1;HPM_P2
2021/04/21 00:00:29;;;;;;;58.67;43.20;;;11.00;99.90;;;;;;5074340;28;20025;-70
2021/04/21 00:02:55;;;;;;;58.20;42.42;;;11.10;99.90;;;;;;5070627;28;20555;-70
2021/04/21 00:05:25;;;;;;;55.03;37.38;;;11.00;99.90;;;;;;5071768;28;20029;-70
2021/04/21 00:07:53;;;;;;;60.38;41.40;;;11.00;99.90;;;;;;5072819;28;20501;-70
2021/04/21 00:10:22;;;;;;;61.45;44.35;;;11.00;99.90;;;;;;5075615;28;20023;-70
2021/04/21 00:12:52;;;;;;;60.90;43.88;;;10.90;99.90;;;;;;5067841;28;20108;-70
2021/04/21 00:15:23;;;;;;;62.67;44.00;;;11.00;99.90;;;;;;5071754;28;20028;-70
2021/04/21 00:17:55;;;;;;;57.72;42.30;;;10.90;99.90;;;;;;5073585;28;20090;-70
2021/04/21 00:20:23;;;;;;;60.92;40.90;;;10.90;99.90;;;;;;5066431;28;20178;-69
2021/04/21 00:23:11;;;;;;;60.80;43.00;;;10.80;99.90;;;;;;5072244;28;20483;-70
2021/04/21 00:25:40;;;;;;;60.90;42.15;;;10.80;99.90;;;;;;5053132;28;20034;-70
2021/04/21 00:28:07;;;;;;;64.85;43.90;;;10.90;99.90;;;;;;5075525;28;20035;-70
2021/04/21 00:30:36;;;;;;;60.33;42.88;;;10.80;99.90;;;;;;5055443;28;20152;-70
2021/04/21 00:33:03;;;;;;;59.17;40.42;;;10.80;99.90;;;;;;5055194;28;20036;-70
2021/04/21 00:35:45;;;;;;;63.28;41.25;;;10.70;99.90;;;;;;5068206;28;20028;-70
2021/04/21 00:38:19;;;;;;;60.70;42.75;;;10.60;99.90;;;;;;5071041;28;20028;-70
2021/04/21 00:40:56;;;;;;;56.67;39.80;;;10.50;99.90;;;;;;5072552;28;20020;-70
2021/04/21 00:43:24;;;;;;;60.08;41.45;;;10.50;99.90;;;;;;5072813;28;20104;-70
2021/04/21 00:46:14;;;;;;;58.10;42.00;;;10.40;99.90;;;;;;5072660;28;20417;-70
2021/04/21 00:49:17;;;;;;;59.38;41.28;;;10.30;99.90;;;;;;5077554;28;20122;-70
2021/04/21 00:51:59;;;;;;;63.00;41.58;;;10.30;99.90;;;;;;5066355;28;20025;-70
2021/04/21 00:54:32;;;;;;;64.70;43.88;;;10.30;99.90;;;;;;5069638;28;20042;-70
2021/04/21 00:57:35;;;;;;;61.60;41.67;;;10.30;99.90;;;;;;5070056;28;20571;-70
2021/04/21 01:00:13;;;;;;;60.87;41.90;;;10.30;99.90;;;;;;5072745;28;20027;-70
2021/04/21 01:02:59;;;;;;;58.90;39.55;;;10.30;99.90;;;;;;5070834;28;20028;-70
2021/04/21 01:05:28;;;;;;;59.97;44.00;;;10.20;99.90;;;;;;5076693;28;20033;-70
2021/04/21 01:08:00;;;;;;;62.10;42.78;;;10.30;99.90;;;;;;5071479;28;20020;-70
2021/04/21 01:10:33;;;;;;;63.97;44.28;;;10.20;99.90;;;;;;5075053;28;20025;-70
2021/04/21 01:13:01;;;;;;;62.95;43.38;;;10.10;99.90;;;;;;5068202;28;20087;-70
2021/04/21 01:15:28;;;;;;;58.75;42.30;;;10.20;99.90;;;;;;5072423;28;20444;-69
2021/04/21 01:17:56;;;;;;;66.15;45.00;;;10.10;99.90;;;;;;5072032;28;20013;-70
2021/04/21 01:20:40;;;;;;;65.97;42.63;;;10.10;99.90;;;;;;5071031;28;20550;-70
2021/04/21 01:23:27;;;;;;;61.58;41.33;;;10.00;99.90;;;;;;5071806;28;20031;-70
2021/04/21 01:26:16;;;;;;;60.78;41.10;;;9.90;99.90;;;;;;5068668;28;20024;-70
2021/04/21 01:28:50;;;;;;;66.13;42.42;;;9.90;99.90;;;;;;5067910;28;20025;-70
2021/04/21 01:31:18;;;;;;;61.85;43.10;;;9.80;99.90;;;;;;5071606;28;20029;-69
2021/04/21 01:33:47;;;;;;;67.18;43.25;;;9.80;99.90;;;;;;5070004;28;20029;-69
2021/04/21 01:36:15;;;;;;;66.05;43.65;;;9.80;99.90;;;;;;5063954;28;20512;-69
2021/04/21 01:38:43;;;;;;;61.15;39.55;;;9.80;99.90;;;;;;5070996;28;20492;-70
2021/04/21 01:41:14;;;;;;;59.45;39.60;;;9.80;99.90;;;;;;5071886;28;20025;-70
2021/04/21 01:43:43;;;;;;;66.53;41.97;;;9.70;99.90;;;;;;5073656;28;20109;-70
2021/04/21 01:46:12;;;;;;;71.75;45.03;;;9.60;99.90;;;;;;5066995;28;20027;-70
2021/04/21 01:48:39;;;;;;;66.32;42.75;;;9.50;99.90;;;;;;5070448;28;20085;-70
2021/04/21 01:51:14;;;;;;;66.22;42.33;;;9.50;99.90;;;;;;5074722;28;20024;-70
2021/04/21 01:53:41;;;;;;;62.08;42.15;;;9.50;99.90;;;;;;5065260;28;20040;-70
2021/04/21 01:56:19;;;;;;;63.38;42.88;;;9.50;99.90;;;;;;5070867;28;20029;-70
2021/04/21 01:58:57;;;;;;;63.67;41.47;;;9.40;99.90;;;;;;5066925;28;20029;-70
2021/04/21 02:01:44;;;;;;;61.83;40.75;;;9.40;99.90;;;;;;5071365;28;20024;-70
2021/04/21 02:04:24;;;;;;;59.40;40.13;;;9.40;99.90;;;;;;5070140;28;20476;-70
2021/04/21 02:07:12;;;;;;;62.42;41.97;;;9.40;99.90;;;;;;5068619;28;20021;-70
2021/04/21 02:09:46;;;;;;;64.70;41.28;;;9.40;99.90;;;;;;5065414;28;20455;-70
2021/04/21 02:12:40;;;;;;;64.30;40.50;;;9.50;99.90;;;;;;5070875;28;20040;-70
2021/04/21 02:15:33;;;;;;;60.92;39.25;;;9.40;99.90;;;;;;5070130;28;20036;-70
2021/04/21 02:18:24;;;;;;;62.45;41.28;;;9.50;99.90;;;;;;5072605;28;20054;-70
2021/04/21 02:21:20;;;;;;;63.30;41.55;;;9.40;99.90;;;;;;5072517;28;20423;-70
2021/04/21 02:24:08;;;;;;;59.85;38.67;;;9.40;99.90;;;;;;5068999;28;20036;-70
2021/04/21 02:26:44;;;;;;;64.88;41.88;;;9.30;99.90;;;;;;5069272;28;20082;-70
2021/04/21 02:29:24;;;;;;;66.95;43.53;;;9.30;99.90;;;;;;5066775;28;20074;-70
2021/04/21 02:32:02;;;;;;;64.80;43.00;;;9.30;99.90;;;;;;5073561;28;20021;-70
2021/04/21 02:34:55;;;;;;;61.38;39.20;;;9.30;99.90;;;;;;5068637;28;20036;-70
2021/04/21 02:37:27;;;;;;;;;;;9.30;99.90;;;;;;5069240;28;20109;-70
2021/04/21 02:39:59;;;;;;;62.35;40.00;;;9.30;99.90;;;;;;5070927;28;19908;-70
2021/04/21 02:42:27;;;;;;;65.45;40.45;;;9.30;99.90;;;;;;5072282;28;20025;-70
2021/04/21 02:45:22;;;;;;;63.95;40.65;;;9.30;99.90;;;;;;5066847;28;20024;-70
2021/04/21 02:48:11;;;;;;;64.85;40.38;;;9.30;99.90;;;;;;5072413;28;20029;-70
2021/04/21 02:51:09;;;;;;;62.13;39.58;;;9.30;99.90;;;;;;5067455;28;20542;-69
2021/04/21 02:54:14;;;;;;;61.15;39.17;;;9.30;99.90;;;;;;5069179;28;20089;-70
2021/04/21 02:56:52;;;;;;;64.07;39.10;;;9.20;99.90;;;;;;5065749;28;20601;-69
2021/04/21 02:59:39;;;;;;;60.55;37.97;;;9.10;99.90;;;;;;5068006;28;20174;-69
2021/04/21 03:02:19;;;;;;;62.58;39.92;;;9.10;99.90;;;;;;5071159;28;20024;-70
2021/04/21 03:04:51;;;;;;;63.33;39.58;;;9.10;99.90;;;;;;5071766;28;20012;-70
2021/04/21 03:07:38;;;;;;;63.22;39.15;;;9.20;99.90;;;;;;5066977;28;20025;-70
2021/04/21 03:10:09;;;;;;;57.63;38.13;;;9.20;99.90;;;;;;5070503;28;20113;-70
2021/04/21 03:12:39;;;;;;;63.85;38.80;;;9.10;99.90;;;;;;5070325;28;20024;-69
2021/04/21 03:15:08;;;;;;;63.20;39.60;;;9.10;99.90;;;;;;5069910;28;20032;-70
2021/04/21 03:17:34;;;;;;;63.75;40.38;;;9.10;99.90;;;;;;5069392;28;20036;-70
2021/04/21 03:20:06;;;;;;;65.30;42.15;;;9.10;99.90;;;;;;5074588;28;20020;-70
2021/04/21 03:22:33;;;;;;;61.47;40.60;;;9.10;99.90;;;;;;5068969;28;20065;-70
2021/04/21 03:25:13;;;;;;;64.53;40.35;;;9.10;99.90;;;;;;5076621;28;20349;-70
2021/04/21 03:27:42;;;;;;;65.43;40.60;;;9.10;99.90;;;;;;5073517;28;20036;-70
2021/04/21 03:30:11;;;;;;;63.67;39.38;;;9.10;99.90;;;;;;5072580;28;20037;-70
2021/04/21 03:32:40;;;;;;;68.47;41.60;;;9.00;99.90;;;;;;5070587;28;20371;-70
2021/04/21 03:35:09;;;;;;;66.03;42.03;;;9.00;99.90;;;;;;5074283;28;20021;-70
2021/04/21 03:38:02;;;;;;;68.63;43.75;;;9.00;99.90;;;;;;5072337;28;20094;-70
2021/04/21 03:40:28;;;;;;;;;;;9.00;99.90;;;;;;5069975;28;20021;-70
2021/04/21 03:42:55;;;;;;;63.20;38.95;;;8.90;99.90;;;;;;5072371;28;19915;-70
2021/04/21 03:45:21;;;;;;;65.30;40.63;;;9.00;99.90;;;;;;5073922;28;20017;-69
2021/04/21 03:47:48;;;;;;;64.90;39.08;;;9.00;99.90;;;;;;5071191;28;20150;-69
2021/04/21 03:50:16;;;;;;;67.20;41.65;;;9.00;99.90;;;;;;5076295;28;20024;-69
2021/04/21 03:52:48;;;;;;;62.45;39.05;;;9.00;99.90;;;;;;5070577;28;20376;-69
2021/04/21 03:55:16;;;;;;;65.53;40.65;;;9.00;99.90;;;;;;5071516;28;20465;-69
2021/04/21 03:57:47;;;;;;;69.10;41.70;;;9.00;99.90;;;;;;5072194;28;20488;-69
2021/04/21 04:00:18;;;;;;;67.72;43.08;;;9.00;99.90;;;;;;5068734;28;20116;-70
2021/04/21 04:02:50;;;;;;;66.95;43.38;;;9.00;99.90;;;;;;5069159;28;20939;-70
2021/04/21 04:05:23;;;;;;;68.30;41.67;;;9.00;99.90;;;;;;5075797;28;20027;-69
2021/04/21 04:07:51;;;;;;;75.40;45.17;;;9.00;99.90;;;;;;5073534;28;20075;-70
2021/04/21 04:10:17;;;;;;;73.88;44.35;;;9.00;99.90;;;;;;5071797;28;20078;-70
2021/04/21 04:12:44;;;;;;;70.65;42.40;;;9.00;99.90;;;;;;5070377;28;20028;-69
2021/04/21 04:15:13;;;;;;;67.97;43.70;;;9.00;99.90;;;;;;5073494;28;20057;-70
2021/04/21 04:17:43;;;;;;;70.95;41.67;;;9.00;99.90;;;;;;5071384;28;20086;-70
2021/04/21 04:20:14;;;;;;;70.20;42.47;;;9.00;99.90;;;;;;5078451;28;20377;-69
2021/04/21 04:22:43;;;;;;;69.47;40.90;;;9.10;99.90;;;;;;5070702;28;20052;-70
2021/04/21 04:25:31;;;;;;;72.72;41.33;;;9.10;99.90;;;;;;5072136;28;20028;-70
2021/04/21 04:27:58;;;;;;;77.53;44.10;;;9.10;99.90;;;;;;5077532;28;20032;-69
2021/04/21 04:30:25;;;;;;;67.95;41.97;;;9.00;99.90;;;;;;5069325;28;20032;-70
2021/04/21 04:32:52;;;;;;;71.95;42.25;;;9.00;99.90;;;;;;5072235;28;20012;-70
2021/04/21 04:35:17;;;;;;;63.42;38.95;;;9.10;99.90;;;;;;5069733;28;20028;-69
2021/04/21 04:37:43;;;;;;;64.97;40.45;;;9.10;99.90;;;;;;5067533;28;20040;-70
2021/04/21 04:40:14;;;;;;;65.78;41.22;;;9.00;99.90;;;;;;5078859;28;20024;-69
2021/04/21 04:42:42;;;;;;;71.00;41.88;;;9.00;99.90;;;;;;5072956;28;20044;-70
2021/04/21 04:45:09;;;;;;;66.78;41.40;;;9.00;99.90;;;;;;5073512;28;20017;-69
2021/04/21 04:47:42;;;;;;;73.43;44.42;;;9.10;99.90;;;;;;5070912;28;20035;-70
2021/04/21 04:50:13;;;;;;;77.85;45.58;;;9.10;99.90;;;;;;5072766;28;20039;-70
2021/04/21 04:52:42;;;;;;;70.88;44.13;;;9.10;99.90;;;;;;5068089;28;20025;-69
2021/04/21 04:55:10;;;;;;;70.18;44.90;;;9.10;99.90;;;;;;5070962;28;20041;-70
2021/04/21 04:57:39;;;;;;;75.18;43.83;;;9.10;99.90;;;;;;5073399;28;20075;-70
2021/04/21 05:00:10;;;;;;;58.42;39.03;;;9.10;99.90;;;;;;5073008;28;20122;-70
2021/04/21 05:02:41;;;;;;;68.35;40.65;;;9.10;99.90;;;;;;5065787;28;20393;-70
2021/04/21 05:05:09;;;;;;;72.63;44.15;;;9.20;99.90;;;;;;5069801;28;20382;-70
2021/04/21 05:07:38;;;;;;;73.18;45.63;;;9.20;99.90;;;;;;5068267;28;20016;-70
2021/04/21 05:10:07;;;;;;;72.53;41.78;;;9.20;99.90;;;;;;5074055;28;20112;-69
2021/04/21 05:12:39;;;;;;;65.38;42.92;;;9.30;99.90;;;;;;5071493;28;20052;-69
2021/04/21 05:15:07;;;;;;;67.50;40.75;;;9.20;99.90;;;;;;5073549;28;20024;-69
2021/04/21 05:17:32;;;;;;;63.47;38.03;;;9.20;99.90;;;;;;5070018;28;20049;-69
2021/04/21 05:20:28;;;;;;;66.80;38.72;;;9.30;99.90;;;;;;5071957;28;20423;-70
2021/04/21 05:23:09;;;;;;;68.15;38.20;;;9.30;99.90;;;;;;5069944;28;20067;-70
2021/04/21 05:26:16;;;;;;;70.60;40.10;;;9.40;99.90;;;;;;5071340;28;20040;-70
2021/04/21 05:28:54;;;;;;;66.13;39.88;;;9.40;99.90;;;;;;5049896;28;20025;-69
2021/04/21 05:31:48;;;;;;;66.50;42.13;;;9.40;99.90;;;;;;5069974;28;20036;-70
2021/04/21 05:34:52;;;;;;;69.03;41.28;;;9.30;99.90;;;;;;5070738;28;20028;-70
2021/04/21 05:37:40;;;;;;;73.55;40.97;;;9.30;99.90;;;;;;5062495;28;20036;-70
2021/04/21 05:40:43;;;;;;;62.88;39.45;;;9.40;99.90;;;;;;5070252;28;20027;-70
2021/04/21 05:43:26;;;;;;;64.78;38.78;;;9.40;99.90;;;;;;5068167;28;20044;-70
2021/04/21 05:46:16;;;;;;;71.72;43.60;;;9.50;99.90;;;;;;5072018;28;20173;-70
2021/04/21 05:49:02;;;;;;;63.92;39.92;;;9.60;99.90;;;;;;5071206;28;20021;-70
2021/04/21 05:51:44;;;;;;;62.65;40.65;;;9.60;99.90;;;;;;5067809;28;20025;-70
2021/04/21 05:54:46;;;;;;;67.80;42.05;;;9.80;99.90;;;;;;5067952;28;20035;-70
2021/04/21 05:57:23;;;;;;;70.35;40.25;;;9.90;99.90;;;;;;5069629;28;20052;-70
2021/04/21 06:00:16;;;;;;;74.75;42.55;;;10.00;99.90;;;;;;5072812;28;20020;-70
2021/04/21 06:02:46;;;;;;;65.65;41.03;;;10.10;99.90;;;;;;5071061;28;20035;-70
2021/04/21 06:05:13;;;;;;;61.78;38.72;;;10.30;99.90;;;;;;5074063;28;20020;-70
2021/04/21 06:07:43;;;;;;;66.85;38.83;;;10.40;99.90;;;;;;5069221;28;20025;-70
2021/04/21 06:10:36;;;;;;;70.00;40.85;;;10.40;99.90;;;;;;5068555;28;20034;-70
2021/04/21 06:13:02;;;;;;;60.75;36.97;;;10.50;99.90;;;;;;5066389;28;20021;-70
2021/04/21 06:15:33;;;;;;;61.75;38.60;;;10.70;99.90;;;;;;5067494;28;20039;-70
2021/04/21 06:18:01;;;;;;;69.32;39.78;;;10.80;99.90;;;;;;5072310;28;20036;-70
2021/04/21 06:20:42;;;;;;;61.40;37.65;;;10.80;99.90;;;;;;5070183;28;20036;-70
2021/04/21 06:23:10;;;;;;;67.50;39.92;;;10.90;99.90;;;;;;5069498;28;20032;-69
2021/04/21 06:25:38;;;;;;;63.78;39.25;;;11.00;99.90;;;;;;5067719;28;20406;-70
2021/04/21 06:28:22;;;;;;;60.83;38.72;;;11.10;99.90;;;;;;5072442;28;20412;-70
2021/04/21 06:30:49;;;;;;;63.55;38.65;;;11.10;99.90;;;;;;5069248;28;20101;-69
2021/04/21 06:33:15;;;;;;;60.42;37.75;;;11.20;99.90;;;;;;5069623;28;20024;-69
2021/04/21 06:35:42;;;;;;;57.78;36.45;;;11.20;99.90;;;;;;5069443;28;20035;-70
2021/04/21 06:38:09;;;;;;;59.42;35.97;;;11.20;99.90;;;;;;5065477;28;20109;-70
2021/04/21 06:40:37;;;;;;;62.55;39.75;;;11.30;99.90;;;;;;5070900;28;20016;-70
2021/04/21 06:43:04;;;;;;;53.05;36.10;;;11.30;99.90;;;;;;5072615;28;20093;-70
2021/04/21 06:45:35;;;;;;;55.20;34.20;;;11.40;99.90;;;;;;5070280;28;20021;-70
2021/04/21 06:48:04;;;;;;;56.17;35.85;;;11.40;99.90;;;;;;5070948;28;20499;-71
2021/04/21 06:50:37;;;;;;;61.05;37.67;;;11.50;99.90;;;;;;5069202;28;22191;-71
2021/04/21 06:53:08;;;;;;;58.60;37.22;;;11.50;99.90;;;;;;5073295;28;20050;-71
2021/04/21 06:55:35;;;;;;;57.72;38.55;;;11.60;99.90;;;;;;5064500;28;20032;-70
2021/04/21 06:58:14;;;;;;;58.03;38.03;;;11.60;99.90;;;;;;5075417;28;20036;-71
2021/04/21 07:00:39;;;;;;;56.03;33.83;;;11.70;99.90;;;;;;5070961;28;20024;-71
2021/04/21 07:03:05;;;;;;;55.70;33.38;;;11.80;99.90;;;;;;5073962;28;20434;-70
2021/04/21 07:05:41;;;;;;;53.50;36.42;;;11.90;99.90;;;;;;5075266;28;20429;-70
2021/04/21 07:08:11;;;;;;;53.85;32.90;;;11.90;99.90;;;;;;5074748;28;20033;-71
2021/04/21 07:10:51;;;;;;;49.03;32.00;;;12.00;99.90;;;;;;5072581;28;20039;-71
2021/04/21 07:13:22;;;;;;;50.90;31.90;;;12.10;99.90;;;;;;5072493;28;20024;-70
2021/04/21 07:15:50;;;;;;;47.30;32.20;;;12.10;99.90;;;;;;5073549;28;20068;-71
2021/04/21 07:18:19;;;;;;;52.92;31.63;;;12.20;99.90;;;;;;5072829;28;20016;-71
2021/04/21 07:20:46;;;;;;;52.53;32.03;;;12.30;99.90;;;;;;5071543;28;20029;-71
2021/04/21 07:23:12;;;;;;;48.65;30.85;;;12.40;99.90;;;;;;5074256;28;20017;-71
2021/04/21 07:25:39;;;;;;;46.63;30.50;;;12.50;99.90;;;;;;5073852;28;20033;-71
2021/04/21 07:28:06;;;;;;;49.30;27.05;;;12.50;99.90;;;;;;5073377;28;20059;-71
2021/04/21 07:30:33;;;;;;;40.08;27.10;;;12.60;99.90;;;;;;5074778;28;20028;-71
2021/04/21 07:32:59;;;;;;;45.20;27.17;;;12.70;99.90;;;;;;5073615;28;20050;-71
2021/04/21 07:35:28;;;;;;;44.63;27.90;;;12.80;99.90;;;;;;5073852;28;20562;-70
2021/04/21 07:37:58;;;;;;;38.80;25.13;;;12.80;99.90;;;;;;5073161;28;20028;-71
2021/04/21 07:40:27;;;;;;;37.50;24.25;;;12.90;99.90;;;;;;5053663;28;20034;-71
2021/04/21 07:43:11;;;;;;;34.15;24.67;;;13.10;99.90;;;;;;5069843;28;20123;-71
2021/04/21 07:45:49;;;;;;;35.60;24.95;;;13.20;99.90;;;;;;5071003;28;20020;-71
2021/04/21 07:48:42;;;;;;;39.08;23.45;;;13.40;99.90;;;;;;5071420;28;20091;-71
2021/04/21 07:51:20;;;;;;;39.90;25.90;;;13.50;99.90;;;;;;5072470;28;20052;-71
2021/04/21 07:54:01;;;;;;;37.10;25.50;;;13.70;99.90;;;;;;5073458;28;20044;-70
2021/04/21 07:56:34;;;;;;;38.70;25.10;;;13.80;99.90;;;;;;5076357;28;20500;-71
2021/04/21 07:59:13;;;;;;;;;;;13.90;99.90;;;;;;5084508;28;20021;-71
2021/04/21 08:01:39;;;;;;;38.65;24.17;;;14.00;99.90;;;;;;5074304;28;21089;-71
2021/04/21 08:04:27;;;;;;;33.85;24.23;;;14.10;99.90;;;;;;5070998;28;20033;-71
2021/04/21 08:06:58;;;;;;;32.90;22.88;;;14.20;99.90;;;;;;5067985;28;20052;-72
2021/04/21 08:09:25;;;;;;;36.42;21.48;;;14.30;99.90;;;;;;5071701;28;20017;-72
2021/04/21 08:12:12;;;;;;;32.55;21.85;;;14.40;99.90;;;;;;5073891;28;20477;-72
2021/04/21 08:14:44;;;;;;;35.92;23.20;;;14.50;99.90;;;;;;5071718;28;20089;-71
2021/04/21 08:17:11;;;;;;;29.35;20.80;;;14.70;99.90;;;;;;5073506;28;20040;-71
2021/04/21 08:19:39;;;;;;;35.03;20.88;;;14.80;99.90;;;;;;5070776;28;20511;-71
2021/04/21 08:22:06;;;;;;;30.48;19.17;;;14.90;99.90;;;;;;5071915;28;20036;-72
2021/04/21 08:24:40;;;;;;;27.10;19.35;;;15.00;99.90;;;;;;5071473;28;20021;-71
2021/04/21 08:27:08;;;;;;;27.13;19.27;;;15.00;99.90;;;;;;5078238;28;20094;-71
2021/04/21 08:29:34;;;;;;;25.92;17.10;;;15.10;99.90;;;;;;5072479;28;20017;-72
2021/04/21 08:32:00;;;;;;;25.77;18.13;;;15.10;99.90;;;;;;5072040;28;20028;-70
2021/04/21 08:34:26;;;;;;;27.15;17.65;;;15.20;99.90;;;;;;5071930;28;20096;-71
2021/04/21 08:36:51;;;;;;;28.13;18.85;;;15.40;99.90;;;;;;5073107;28;20101;-71
2021/04/21 08:39:17;;;;;;;33.10;21.27;;;15.40;99.90;;;;;;5073900;28;20016;-70
2021/04/21 08:41:44;;;;;;;32.25;20.38;;;15.60;99.90;;;;;;5075802;28;20021;-70
2021/04/21 08:44:11;;;;;;;26.13;19.63;;;15.70;99.90;;;;;;5071140;28;20013;-72
2021/04/21 08:46:37;;;;;;;27.85;18.73;;;15.70;99.90;;;;;;5079365;28;20172;-70
2021/04/21 08:49:08;;;;;;;27.92;18.13;;;15.90;99.90;;;;;;5075868;28;20021;-72
2021/04/21 08:51:35;;;;;;;32.33;19.20;;;16.00;99.90;;;;;;5070751;28;20108;-70
2021/04/21 08:54:05;;;;;;;27.98;17.77;;;16.20;99.90;;;;;;5074713;28;20042;-70
2021/04/21 08:56:37;;;;;;;28.15;19.42;;;16.20;99.90;;;;;;5071073;28;20774;-71
2021/04/21 08:59:04;;;;;;;;;;;16.40;99.90;;;;;;5076078;28;20039;-71
2021/04/21 09:01:30;;;;;;;27.15;19.20;;;16.50;99.90;;;;;;5083938;28;19908;-69
2021/04/21 09:03:56;;;;;;;29.83;20.45;;;16.60;99.90;;;;;;5075444;28;20111;-71
2021/04/21 09:06:21;;;;;;;33.50;19.67;;;16.60;99.90;;;;;;5071626;28;20021;-70
2021/04/21 09:08:51;;;;;;;30.50;19.92;;;16.60;99.90;;;;;;5071541;28;20020;-71
2021/04/21 09:11:20;;;;;;;30.42;19.95;;;16.70;99.90;;;;;;5066966;28;20032;-72
2021/04/21 09:13:46;;;;;;;33.33;21.33;;;16.80;99.90;;;;;;5070130;28;20022;-70
2021/04/21 09:16:12;;;;;;;31.65;22.20;;;16.90;99.90;;;;;;5069553;28;20571;-71
2021/04/21 09:18:38;;;;;;;34.47;19.65;;;17.10;99.90;;;;;;5067563;28;20116;-71
2021/04/21 09:21:05;;;;;;;28.40;18.83;;;17.20;99.90;;;;;;5075780;28;20035;-72
2021/04/21 09:23:41;;;;;;;30.77;21.00;;;17.40;99.90;;;;;;5072476;28;20029;-70
2021/04/21 09:26:21;;;;;;;26.38;18.98;;;17.60;99.90;;;;;;5068983;28;20040;-70
2021/04/21 09:28:49;;;;;;;25.08;19.20;;;17.70;99.90;;;;;;5071014;28;20473;-70
2021/04/21 09:31:26;;;;;;;26.55;19.30;;;17.70;99.90;;;;;;5069354;28;20606;-69
2021/04/21 09:34:14;;;;;;;30.23;21.27;;;17.60;99.90;;;;;;5073013;28;20059;-71
2021/04/21 09:36:45;;;;;;;31.25;23.75;;;17.70;99.90;;;;;;5070537;28;20428;-72
2021/04/21 09:39:16;;;;;;;33.78;23.20;;;17.70;99.90;;;;;;5069459;28;20027;-70
2021/04/21 09:41:43;;;;;;;29.10;21.30;;;17.80;99.90;;;;;;5074379;28;20021;-72
2021/04/21 09:44:19;;;;;;;31.35;22.08;;;17.90;99.90;;;;;;5064664;28;20496;-73
2021/04/21 09:46:46;;;;;;;28.45;22.42;;;18.00;99.90;;;;;;5066663;28;20044;-72
2021/04/21 09:49:35;;;;;;;29.67;21.75;;;18.00;99.90;;;;;;5073874;28;20068;-71
2021/04/21 09:52:10;;;;;;;30.25;20.52;;;18.00;99.90;;;;;;5071426;28;20016;-71
2021/04/21 09:54:37;;;;;;;25.80;19.10;;;18.10;99.90;;;;;;5071488;28;20512;-71
2021/04/21 09:57:11;;;;;;;28.05;20.27;;;18.10;99.90;;;;;;5069344;28;20489;-71
2021/04/21 09:59:38;;;;;;;25.88;19.25;;;18.20;99.90;;;;;;5060351;28;20020;-72
2021/04/21 10:02:29;;;;;;;29.17;18.55;;;18.20;99.90;;;;;;5067150;28;20610;-72
2021/04/21 10:04:55;;;;;;;22.88;15.63;;;18.30;99.90;;;;;;5069164;28;20013;-72
2021/04/21 10:07:21;;;;;;;19.73;14.90;;;18.30;99.90;;;;;;5069703;28;20054;-71
2021/04/21 10:09:56;;;;;;;23.17;14.35;;;18.30;99.90;;;;;;5070991;28;20095;-72
2021/04/21 10:12:25;;;;;;;25.23;15.80;;;18.40;99.90;;;;;;5066354;28;20028;-71
2021/04/21 10:15:09;;;;;;;22.20;16.23;;;18.50;99.90;;;;;;5070302;28;20024;-72
2021/04/21 10:17:45;;;;;;;19.60;14.52;;;18.70;99.90;;;;;;5067906;28;20037;-73
2021/04/21 10:20:16;;;;;;;20.80;13.65;;;18.60;99.00;;;;;;5075604;28;20055;-72
2021/04/21 10:22:45;;;;;;;18.88;14.30;;;18.70;99.90;;;;;;5070553;28;20024;-72
2021/04/21 10:25:13;;;;;;;18.80;13.73;;;18.90;99.90;;;;;;5077066;28;20028;-72
2021/04/21 10:27:39;;;;;;;18.75;13.70;;;19.00;99.90;;;;;;5073399;28;20081;-72
2021/04/21 10:30:07;;;;;;;19.17;13.80;;;19.20;99.90;;;;;;5069665;28;20029;-72
2021/04/21 10:32:33;;;;;;;20.58;15.15;;;19.00;99.40;;;;;;5067945;28;20016;-72
2021/04/21 10:34:59;;;;;;;23.30;14.18;;;18.90;98.60;;;;;;5070367;28;20020;-72
2021/04/21 10:37:26;;;;;;;21.13;13.32;;;18.90;99.50;;;;;;5067514;28;20040;-71
2021/04/21 10:39:53;;;;;;;17.23;13.57;;;19.10;98.60;;;;;;5074685;28;20016;-72
2021/04/21 10:42:20;;;;;;;17.58;12.73;;;19.30;99.90;;;;;;5071881;28;20069;-72
2021/04/21 10:44:47;;;;;;;16.10;12.05;;;19.40;99.10;;;;;;5070329;28;20021;-72
2021/04/21 10:47:29;;;;;;;23.42;14.35;;;19.50;98.60;;;;;;5079787;28;20070;-72
2021/04/21 10:50:04;;;;;;;21.55;14.88;;;19.50;98.60;;;;;;5067170;28;20074;-71
2021/04/21 10:52:29;;;;;;;23.23;14.85;;;19.60;99.00;;;;;;5074317;28;20055;-72
2021/04/21 10:55:04;;;;;;;21.65;13.13;;;19.60;97.60;;;;;;5070113;28;20086;-72
2021/04/21 10:57:32;;;;;;;19.83;14.57;;;19.60;97.00;;;;;;5062292;28;20040;-72
2021/04/21 11:00:06;;;;;;;19.85;14.57;;;19.50;96.20;;;;;;5075288;28;20024;-71
2021/04/21 11:02:43;;;;;;;19.98;14.90;;;19.50;96.30;;;;;;5069557;28;20024;-72
2021/04/21 11:05:17;;;;;;;19.73;14.13;;;19.40;96.60;;;;;;5074692;28;20032;-71
2021/04/21 11:08:00;;;;;;;19.45;13.95;;;19.50;95.90;;;;;;5069797;28;20070;-72
2021/04/21 11:10:57;;;;;;;19.02;14.77;;;19.70;96.80;;;;;;5069479;28;20122;-73
2021/04/21 11:13:35;;;;;;;28.42;15.90;;;19.70;97.70;;;;;;5069830;28;20024;-72
2021/04/21 11:16:26;;;;;;;20.60;16.70;;;19.70;96.50;;;;;;5073173;28;20450;-72
2021/04/21 11:18:52;;;;;;;21.52;16.05;;;19.80;96.50;;;;;;5067845;28;20025;-72
2021/04/21 11:21:19;;;;;;;22.98;15.35;;;19.90;96.90;;;;;;5074857;28;20089;-72
2021/04/21 11:24:03;;;;;;;23.40;15.10;;;19.80;94.60;;;;;;5070236;28;20472;-72
2021/04/21 11:26:30;;;;;;;19.08;14.68;;;19.80;94.70;;;;;;5060592;28;20073;-71
2021/04/21 11:29:15;;;;;;;20.42;14.80;;;19.90;94.90;;;;;;5076839;28;20111;-72
2021/04/21 11:31:44;;;;;;;20.67;15.10;;;19.70;95.00;;;;;;5074350;28;20051;-72
2021/04/21 11:34:12;;;;;;;21.83;16.58;;;19.70;97.00;;;;;;5075410;28;20081;-72
2021/04/21 11:36:55;;;;;;;19.58;14.75;;;19.40;95.40;;;;;;5072742;28;20047;-73
2021/04/21 11:39:40;;;;;;;18.65;15.35;;;19.30;95.30;;;;;;5066395;28;20059;-72
2021/04/21 11:42:22;;;;;;;21.38;14.77;;;19.60;94.30;;;;;;5073008;28;20039;-70
2021/04/21 11:44:47;;;;;;;23.08;15.90;;;19.80;94.80;;;;;;5062641;28;20036;-72
2021/04/21 11:47:35;;;;;;;27.23;17.98;;;19.90;95.40;;;;;;5072570;28;20032;-73
2021/04/21 11:50:00;;;;;;;21.27;16.85;;;19.90;94.90;;;;;;5076438;28;20155;-72
2021/04/21 11:52:54;;;;;;;22.83;14.95;;;19.70;94.20;;;;;;5074909;28;20100;-72
2021/04/21 11:55:19;;;;;;;24.40;15.07;;;19.70;96.40;;;;;;5075738;28;20036;-72
2021/04/21 11:58:03;;;;;;;25.85;15.45;;;19.70;95.70;;;;;;5073693;28;20443;-72
2021/04/21 12:00:34;;;;;;;22.95;16.05;;;19.60;95.20;;;;;;5073497;28;20120;-73
2021/04/21 12:03:01;;;;;;;24.52;16.75;;;19.50;96.90;;;;;;5070570;28;20616;-72
2021/04/21 12:05:33;;;;;;;20.80;15.57;;;19.40;94.50;;;;;;5066325;28;20362;-71
2021/04/21 12:08:02;;;;;;;21.98;15.00;;;19.50;94.40;;;;;;5067800;28;20492;-72
2021/04/21 12:10:35;;;;;;;23.98;16.40;;;19.60;95.30;;;;;;5065348;28;20020;-72
2021/04/21 12:13:15;;;;;;;23.00;16.10;;;19.60;95.00;;;;;;5074634;28;20039;-71
2021/04/21 12:15:41;;;;;;;24.00;15.38;;;19.60;95.70;;;;;;5077170;28;20024;-72
2021/04/21 12:18:07;;;;;;;17.35;14.85;;;19.80;94.40;;;;;;5067436;28;20032;-72
2021/04/21 12:20:33;;;;;;;19.95;14.90;;;19.90;93.20;;;;;;5068530;28;20035;-73
2021/04/21 12:22:59;;;;;;;19.20;14.77;;;19.80;93.20;;;;;;5066761;28;20111;-71
2021/04/21 12:25:30;;;;;;;24.00;13.43;;;20.00;94.80;;;;;;5058671;28;20059;-71
2021/04/21 12:27:59;;;;;;;22.63;13.00;;;20.10;94.40;;;;;;5075873;28;20122;-71
2021/04/21 12:30:32;;;;;;;15.52;12.00;;;20.20;94.80;;;;;;5073845;28;20024;-71
2021/04/21 12:33:08;;;;;;;17.15;13.23;;;20.30;93.60;;;;;;5068010;28;20028;-71
2021/04/21 12:35:34;;;;;;;17.13;13.20;;;20.40;93.60;;;;;;5072068;28;20034;-72
2021/04/21 12:38:01;;;;;;;20.08;14.98;;;20.40;92.40;;;;;;5073375;28;20028;-72
2021/04/21 12:40:30;;;;;;;23.52;15.50;;;20.30;92.70;;;;;;5064601;28;20485;-70
2021/04/21 12:43:11;;;;;;;22.52;14.80;;;20.30;92.00;;;;;;5070134;28;20055;-71
2021/04/21 12:45:38;;;;;;;17.52;13.20;;;20.20;92.70;;;;;;5069810;28;20020;-73
2021/04/21 12:48:22;;;;;;;20.23;13.88;;;20.20;91.90;;;;;;5074523;28;20093;-73
2021/04/21 12:50:50;;;;;;;20.50;14.10;;;20.30;93.00;;;;;;5070407;28;20036;-72
2021/04/21 12:53:22;;;;;;;17.20;12.50;;;20.10;92.90;;;;;;5067189;28;20494;-72
2021/04/21 12:55:50;;;;;;;17.90;12.20;;;20.30;91.50;;;;;;5067520;28;20477;-72
2021/04/21 12:58:36;;;;;;;22.58;13.27;;;20.40;91.60;;;;;;5073552;28;20082;-72
2021/04/21 13:01:09;;;;;;;22.80;13.13;;;20.30;91.30;;;;;;5067849;28;20029;-72
2021/04/21 13:03:35;;;;;;;;;;;20.20;91.70;;;;;;5066761;28;20523;-72